CheckWX is a tool to help pilots better visualize weather data.  It is not intended as a substitute for an official pre-flight weather briefing.

03:07:44 UTC

VTSF METAR
Nakhon Si Thammarat Airport
Nakhon Si Thammarat, Thailand
Current

1 hour ago

VTSF 210200Z VRB02KT 9999 FEW018 31/26 Q1010 NOSIG
Observed
Sep-21 @ 02:00 UTC
Wind
  • Variable at 2 KTS
Visibility
10,000+ meters
Flight Rules
VFR
Cloud Levels
  • Few at 1,800' AGL
Temperature
31°C / 88°F
Dewpoint
26°C / 79°F
Heat Index
39°C / 103°F
Humidity
75%
Altimeter
29.82" Hg
Pressure
1009.92 hPa
Previous

2 hours ago

VTSF 210100Z 00000KT 9999 FEW018 29/26 Q1010 NOSIG
Observed
Sep-21 @ 01:00 UTC
Visibility
10,000+ meters
Flight Rules
VFR
Cloud Levels
  • Few at 1,800' AGL
Temperature
29°C / 84°F
Dewpoint
26°C / 79°F
Heat Index
36°C / 96°F
Humidity
84%
Altimeter
29.82" Hg
Pressure
1009.92 hPa
Previous

3 hours ago

VTSF 210000Z VRB02KT 9999 FEW018 24/24 Q1009 NOSIG
Observed
Sep-21 @ 00:00 UTC
Wind
  • Variable at 2 KTS
Visibility
10,000+ meters
Flight Rules
VFR
Cloud Levels
  • Few at 1,800' AGL
Temperature
24°C / 75°F
Dewpoint
24°C / 75°F
Humidity
100%
Altimeter
29.79" Hg
Pressure
1008.92 hPa